sensor_id;sensor_type;location;lat;lon;timestamp;temperature;humidity
65034;DHT22;51601;51.356;12.458;2023-05-07T00:01:46;9.50;99.90
65034;DHT22;51601;51.356;12.458;2023-05-07T00:06:12;9.50;99.90
65034;DHT22;51601;51.356;12.458;2023-05-07T00:10:33;9.50;99.90
65034;DHT22;51601;51.356;12.458;2023-05-07T00:14:53;9.50;99.90
65034;DHT22;51601;51.356;12.458;2023-05-07T00:19:16;9.50;99.90
65034;DHT22;51601;51.356;12.458;2023-05-07T00:23:36;9.50;99.90
65034;DHT22;51601;51.356;12.458;2023-05-07T00:27:54;9.50;99.90
65034;DHT22;51601;51.356;12.458;2023-05-07T00:32:16;9.50;99.90
65034;DHT22;51601;51.356;12.458;2023-05-07T00:36:43;9.50;99.90
65034;DHT22;51601;51.356;12.458;2023-05-07T00:41:17;9.50;99.90
65034;DHT22;51601;51.356;12.458;2023-05-07T00:45:35;9.50;99.90
65034;DHT22;51601;51.356;12.458;2023-05-07T00:49:53;9.50;99.90
65034;DHT22;51601;51.356;12.458;2023-05-07T00:54:16;9.50;99.90
65034;DHT22;51601;51.356;12.458;2023-05-07T00:58:35;9.50;99.90
65034;DHT22;51601;51.356;12.458;2023-05-07T01:02:53;9.40;99.90
65034;DHT22;51601;51.356;12.458;2023-05-07T01:07:18;9.40;99.90
65034;DHT22;51601;51.356;12.458;2023-05-07T01:11:40;9.50;99.90
65034;DHT22;51601;51.356;12.458;2023-05-07T01:16:06;9.50;99.90
65034;DHT22;51601;51.356;12.458;2023-05-07T01:20:30;9.50;99.90
65034;DHT22;51601;51.356;12.458;2023-05-07T01:24:56;9.50;99.90
65034;DHT22;51601;51.356;12.458;2023-05-07T01:29:21;9.40;99.90
65034;DHT22;51601;51.356;12.458;2023-05-07T01:33:44;9.50;99.90
65034;DHT22;51601;51.356;12.458;2023-05-07T01:38:08;9.40;99.90
65034;DHT22;51601;51.356;12.458;2023-05-07T01:42:30;9.40;99.90
65034;DHT22;51601;51.356;12.458;2023-05-07T01:46:50;9.40;99.90
65034;DHT22;51601;51.356;12.458;2023-05-07T01:51:08;9.40;99.90
65034;DHT22;51601;51.356;12.458;2023-05-07T01:55:26;9.40;99.90
65034;DHT22;51601;51.356;12.458;2023-05-07T01:59:50;9.30;99.90
65034;DHT22;51601;51.356;12.458;2023-05-07T02:04:11;9.30;99.90
65034;DHT22;51601;51.356;12.458;2023-05-07T02:08:29;9.30;99.90
65034;DHT22;51601;51.356;12.458;2023-05-07T02:12:48;9.30;99.90
65034;DHT22;51601;51.356;12.458;2023-05-07T02:17:07;9.20;99.90
65034;DHT22;51601;51.356;12.458;2023-05-07T02:21:30;9.20;99.90
65034;DHT22;51601;51.356;12.458;2023-05-07T02:25:51;9.20;99.90
65034;DHT22;51601;51.356;12.458;2023-05-07T02:30:13;9.20;99.90
65034;DHT22;51601;51.356;12.458;2023-05-07T02:34:31;9.30;99.90
65034;DHT22;51601;51.356;12.458;2023-05-07T02:38:51;9.30;99.90
65034;DHT22;51601;51.356;12.458;2023-05-07T02:43:09;9.30;99.90
65034;DHT22;51601;51.356;12.458;2023-05-07T02:47:33;9.20;99.90
65034;DHT22;51601;51.356;12.458;2023-05-07T02:51:56;9.30;99.90
65034;DHT22;51601;51.356;12.458;2023-05-07T02:56:16;9.20;99.90
65034;DHT22;51601;51.356;12.458;2023-05-07T03:00:34;9.20;99.90
65034;DHT22;51601;51.356;12.458;2023-05-07T03:05:11;9.20;99.90
65034;DHT22;51601;51.356;12.458;2023-05-07T03:09:30;9.20;99.90
65034;DHT22;51601;51.356;12.458;2023-05-07T03:13:50;9.20;99.90
65034;DHT22;51601;51.356;12.458;2023-05-07T03:18:11;9.20;99.90
65034;DHT22;51601;51.356;12.458;2023-05-07T03:22:28;9.20;99.90
65034;DHT22;51601;51.356;12.458;2023-05-07T03:26:48;9.20;99.90
65034;DHT22;51601;51.356;12.458;2023-05-07T03:31:08;9.30;99.90
65034;DHT22;51601;51.356;12.458;2023-05-07T03:35:26;9.20;99.90
65034;DHT22;51601;51.356;12.458;2023-05-07T03:39:44;9.30;99.90
65034;DHT22;51601;51.356;12.458;2023-05-07T03:44:03;9.30;99.90
65034;DHT22;51601;51.356;12.458;2023-05-07T03:48:23;9.30;99.90
65034;DHT22;51601;51.356;12.458;2023-05-07T03:52:44;9.30;99.90
65034;DHT22;51601;51.356;12.458;2023-05-07T03:57:05;9.30;99.90
65034;DHT22;51601;51.356;12.458;2023-05-07T04:01:28;9.30;99.90
65034;DHT22;51601;51.356;12.458;2023-05-07T04:05:47;9.30;99.90
65034;DHT22;51601;51.356;12.458;2023-05-07T04:10:06;9.30;99.90
65034;DHT22;51601;51.356;12.458;2023-05-07T04:14:27;9.30;99.90
65034;DHT22;51601;51.356;12.458;2023-05-07T04:18:47;9.30;99.90
65034;DHT22;51601;51.356;12.458;2023-05-07T04:23:06;9.30;99.90
65034;DHT22;51601;51.356;12.458;2023-05-07T04:27:24;9.30;99.90
65034;DHT22;51601;51.356;12.458;2023-05-07T04:31:45;9.30;99.90
65034;DHT22;51601;51.356;12.458;2023-05-07T04:36:05;9.40;99.90
65034;DHT22;51601;51.356;12.458;2023-05-07T04:40:30;9.30;99.90
65034;DHT22;51601;51.356;12.458;2023-05-07T04:44:53;9.40;99.90
65034;DHT22;51601;51.356;12.458;2023-05-07T04:49:13;9.40;99.90
65034;DHT22;51601;51.356;12.458;2023-05-07T04:53:32;9.40;99.90
65034;DHT22;51601;51.356;12.458;2023-05-07T04:57:53;9.40;99.90
65034;DHT22;51601;51.356;12.458;2023-05-07T05:02:13;9.40;99.90
65034;DHT22;51601;51.356;12.458;2023-05-07T05:06:31;9.40;99.90
65034;DHT22;51601;51.356;12.458;2023-05-07T05:11:08;9.40;99.90
65034;DHT22;51601;51.356;12.458;2023-05-07T05:15:29;9.40;99.90
65034;DHT22;51601;51.356;12.458;2023-05-07T05:19:50;9.40;99.90
65034;DHT22;51601;51.356;12.458;2023-05-07T05:24:08;9.50;99.90
65034;DHT22;51601;51.356;12.458;2023-05-07T05:28:31;9.50;99.90
65034;DHT22;51601;51.356;12.458;2023-05-07T05:32:50;9.50;99.90
65034;DHT22;51601;51.356;12.458;2023-05-07T05:37:08;9.50;99.90
65034;DHT22;51601;51.356;12.458;2023-05-07T05:41:26;9.50;99.90
65034;DHT22;51601;51.356;12.458;2023-05-07T05:45:46;9.40;99.90
65034;DHT22;51601;51.356;12.458;2023-05-07T05:50:09;9.50;99.90
65034;DHT22;51601;51.356;12.458;2023-05-07T05:54:29;9.50;99.90
65034;DHT22;51601;51.356;12.458;2023-05-07T05:58:48;9.50;99.90
65034;DHT22;51601;51.356;12.458;2023-05-07T06:03:07;9.60;99.90
65034;DHT22;51601;51.356;12.458;2023-05-07T06:07:27;9.60;99.90
65034;DHT22;51601;51.356;12.458;2023-05-07T06:11:45;9.60;99.90
65034;DHT22;51601;51.356;12.458;2023-05-07T06:16:06;9.70;99.90
65034;DHT22;51601;51.356;12.458;2023-05-07T06:20:29;9.70;99.90
65034;DHT22;51601;51.356;12.458;2023-05-07T06:24:51;9.80;99.90
65034;DHT22;51601;51.356;12.458;2023-05-07T06:29:09;9.90;99.90
65034;DHT22;51601;51.356;12.458;2023-05-07T06:33:30;9.90;99.90
65034;DHT22;51601;51.356;12.458;2023-05-07T06:37:53;10.00;99.90
65034;DHT22;51601;51.356;12.458;2023-05-07T06:42:16;10.00;99.90
65034;DHT22;51601;51.356;12.458;2023-05-07T06:46:37;10.00;99.90
65034;DHT22;51601;51.356;12.458;2023-05-07T06:50:58;10.00;99.90
65034;DHT22;51601;51.356;12.458;2023-05-07T06:55:21;10.00;99.90
65034;DHT22;51601;51.356;12.458;2023-05-07T06:59:40;10.10;99.90
65034;DHT22;51601;51.356;12.458;2023-05-07T07:03:58;10.20;99.90
65034;DHT22;51601;51.356;12.458;2023-05-07T07:08:20;10.30;99.90
65034;DHT22;51601;51.356;12.458;2023-05-07T07:12:42;10.30;99.90
65034;DHT22;51601;51.356;12.458;2023-05-07T07:17:02;10.40;99.90
65034;DHT22;51601;51.356;12.458;2023-05-07T07:21:23;10.50;99.90
65034;DHT22;51601;51.356;12.458;2023-05-07T07:25:44;10.60;99.90
65034;DHT22;51601;51.356;12.458;2023-05-07T07:30:05;10.80;99.90
65034;DHT22;51601;51.356;12.458;2023-05-07T07:34:26;10.80;99.90
65034;DHT22;51601;51.356;12.458;2023-05-07T07:38:44;10.90;99.20
65034;DHT22;51601;51.356;12.458;2023-05-07T07:43:05;11.00;99.10
65034;DHT22;51601;51.356;12.458;2023-05-07T07:47:25;11.10;97.70
65034;DHT22;51601;51.356;12.458;2023-05-07T07:51:45;11.10;97.10
65034;DHT22;51601;51.356;12.458;2023-05-07T07:56:03;11.10;96.40
65034;DHT22;51601;51.356;12.458;2023-05-07T08:00:24;11.10;96.20
65034;DHT22;51601;51.356;12.458;2023-05-07T08:04:47;11.10;95.40
65034;DHT22;51601;51.356;12.458;2023-05-07T08:09:06;11.00;94.80
65034;DHT22;51601;51.356;12.458;2023-05-07T08:13:27;11.00;95.00
65034;DHT22;51601;51.356;12.458;2023-05-07T08:17:45;11.00;95.00
65034;DHT22;51601;51.356;12.458;2023-05-07T08:22:05;11.00;94.50
65034;DHT22;51601;51.356;12.458;2023-05-07T08:26:24;11.00;93.40
65034;DHT22;51601;51.356;12.458;2023-05-07T08:30:42;10.90;93.80
65034;DHT22;51601;51.356;12.458;2023-05-07T08:35:04;10.90;94.00
65034;DHT22;51601;51.356;12.458;2023-05-07T08:39:26;10.90;93.60
65034;DHT22;51601;51.356;12.458;2023-05-07T08:43:48;10.90;93.30
65034;DHT22;51601;51.356;12.458;2023-05-07T08:48:14;10.90;93.80
65034;DHT22;51601;51.356;12.458;2023-05-07T08:52:38;10.90;93.50
65034;DHT22;51601;51.356;12.458;2023-05-07T08:57:00;11.00;92.90
65034;DHT22;51601;51.356;12.458;2023-05-07T09:01:23;11.00;93.00
65034;DHT22;51601;51.356;12.458;2023-05-07T09:05:44;11.00;93.60
65034;DHT22;51601;51.356;12.458;2023-05-07T09:10:09;11.10;93.30
65034;DHT22;51601;51.356;12.458;2023-05-07T09:14:30;11.10;93.10
65034;DHT22;51601;51.356;12.458;2023-05-07T09:18:51;11.20;92.80
65034;DHT22;51601;51.356;12.458;2023-05-07T09:23:11;11.20;92.90
65034;DHT22;51601;51.356;12.458;2023-05-07T09:27:30;11.20;92.50
65034;DHT22;51601;51.356;12.458;2023-05-07T09:31:55;11.30;92.50
65034;DHT22;51601;51.356;12.458;2023-05-07T09:36:15;11.30;92.80
65034;DHT22;51601;51.356;12.458;2023-05-07T09:40:36;11.30;91.60
65034;DHT22;51601;51.356;12.458;2023-05-07T09:45:00;11.30;91.80
65034;DHT22;51601;51.356;12.458;2023-05-07T09:49:29;11.30;91.30
65034;DHT22;51601;51.356;12.458;2023-05-07T09:53:56;11.30;91.80
65034;DHT22;51601;51.356;12.458;2023-05-07T09:58:19;11.30;92.40
65034;DHT22;51601;51.356;12.458;2023-05-07T10:02:40;11.40;92.20
65034;DHT22;51601;51.356;12.458;2023-05-07T10:07:06;11.50;91.90
65034;DHT22;51601;51.356;12.458;2023-05-07T10:11:25;11.50;91.90
65034;DHT22;51601;51.356;12.458;2023-05-07T10:15:43;11.50;91.40
65034;DHT22;51601;51.356;12.458;2023-05-07T10:20:01;11.60;91.40
65034;DHT22;51601;51.356;12.458;2023-05-07T10:24:26;11.60;90.80
65034;DHT22;51601;51.356;12.458;2023-05-07T10:28:54;11.70;90.80
65034;DHT22;51601;51.356;12.458;2023-05-07T10:33:16;11.80;91.30
65034;DHT22;51601;51.356;12.458;2023-05-07T10:37:35;11.90;89.70
65034;DHT22;51601;51.356;12.458;2023-05-07T10:41:54;12.00;88.50
65034;DHT22;51601;51.356;12.458;2023-05-07T10:46:17;12.00;88.30
65034;DHT22;51601;51.356;12.458;2023-05-07T10:50:42;12.00;87.90
65034;DHT22;51601;51.356;12.458;2023-05-07T10:55:22;12.00;88.50
65034;DHT22;51601;51.356;12.458;2023-05-07T10:59:59;12.10;89.60
65034;DHT22;51601;51.356;12.458;2023-05-07T11:04:22;12.10;87.10
65034;DHT22;51601;51.356;12.458;2023-05-07T11:09:04;12.10;87.30
65034;DHT22;51601;51.356;12.458;2023-05-07T11:13:42;12.10;87.20
65034;DHT22;51601;51.356;12.458;2023-05-07T11:18:10;12.10;87.60
65034;DHT22;51601;51.356;12.458;2023-05-07T11:22:36;12.20;87.70
65034;DHT22;51601;51.356;12.458;2023-05-07T11:27:24;12.30;85.20
65034;DHT22;51601;51.356;12.458;2023-05-07T11:31:49;12.30;85.10
65034;DHT22;51601;51.356;12.458;2023-05-07T11:36:11;12.40;83.10
65034;DHT22;51601;51.356;12.458;2023-05-07T11:40:48;12.50;84.50
65034;DHT22;51601;51.356;12.458;2023-05-07T11:45:08;12.50;82.40
65034;DHT22;51601;51.356;12.458;2023-05-07T11:49:28;12.50;80.10
65034;DHT22;51601;51.356;12.458;2023-05-07T11:53:51;12.50;80.40
65034;DHT22;51601;51.356;12.458;2023-05-07T11:58:21;12.60;79.50
65034;DHT22;51601;51.356;12.458;2023-05-07T12:02:41;12.70;79.40
65034;DHT22;51601;51.356;12.458;2023-05-07T12:07:02;12.70;78.80
65034;DHT22;51601;51.356;12.458;2023-05-07T12:11:25;12.80;78.10
65034;DHT22;51601;51.356;12.458;2023-05-07T12:15:45;12.90;77.20
65034;DHT22;51601;51.356;12.458;2023-05-07T12:20:07;13.00;76.60
65034;DHT22;51601;51.356;12.458;2023-05-07T12:24:43;13.10;75.20
65034;DHT22;51601;51.356;12.458;2023-05-07T12:29:05;13.30;74.40
65034;DHT22;51601;51.356;12.458;2023-05-07T12:33:28;13.40;74.50
65034;DHT22;51601;51.356;12.458;2023-05-07T12:37:55;13.30;74.50
65034;DHT22;51601;51.356;12.458;2023-05-07T12:42:19;13.40;74.50
65034;DHT22;51601;51.356;12.458;2023-05-07T12:46:47;13.40;73.80
65034;DHT22;51601;51.356;12.458;2023-05-07T12:51:16;13.50;73.70
65034;DHT22;51601;51.356;12.458;2023-05-07T12:55:42;13.60;72.00
65034;DHT22;51601;51.356;12.458;2023-05-07T13:00:03;13.70;70.30
65034;DHT22;51601;51.356;12.458;2023-05-07T13:04:27;13.70;69.70
65034;DHT22;51601;51.356;12.458;2023-05-07T13:08:50;13.80;69.70
65034;DHT22;51601;51.356;12.458;2023-05-07T13:13:11;13.90;69.90
65034;DHT22;51601;51.356;12.458;2023-05-07T13:17:33;14.00;70.10
65034;DHT22;51601;51.356;12.458;2023-05-07T13:21:56;14.00;69.20
65034;DHT22;51601;51.356;12.458;2023-05-07T13:26:18;14.00;69.00
65034;DHT22;51601;51.356;12.458;2023-05-07T13:30:45;14.00;69.20
65034;DHT22;51601;51.356;12.458;2023-05-07T13:35:10;14.10;69.00
65034;DHT22;51601;51.356;12.458;2023-05-07T13:39:31;14.10;69.00
65034;DHT22;51601;51.356;12.458;2023-05-07T13:43:52;14.00;69.30
65034;DHT22;51601;51.356;12.458;2023-05-07T13:48:10;13.90;69.60
65034;DHT22;51601;51.356;12.458;2023-05-07T13:52:31;13.90;69.70
65034;DHT22;51601;51.356;12.458;2023-05-07T13:56:50;14.00;69.50
65034;DHT22;51601;51.356;12.458;2023-05-07T14:01:10;13.90;68.60
65034;DHT22;51601;51.356;12.458;2023-05-07T14:05:28;13.90;69.00
65034;DHT22;51601;51.356;12.458;2023-05-07T14:09:46;13.90;69.00
65034;DHT22;51601;51.356;12.458;2023-05-07T14:14:05;13.90;69.50
65034;DHT22;51601;51.356;12.458;2023-05-07T14:18:25;14.00;69.80
65034;DHT22;51601;51.356;12.458;2023-05-07T14:22:46;14.00;69.30
65034;DHT22;51601;51.356;12.458;2023-05-07T14:27:04;14.10;68.80
65034;DHT22;51601;51.356;12.458;2023-05-07T14:31:27;14.00;69.00
65034;DHT22;51601;51.356;12.458;2023-05-07T14:35:48;14.10;69.40
65034;DHT22;51601;51.356;12.458;2023-05-07T14:40:08;14.20;69.10
65034;DHT22;51601;51.356;12.458;2023-05-07T14:44:29;14.20;67.80
65034;DHT22;51601;51.356;12.458;2023-05-07T14:48:51;14.20;67.20
65034;DHT22;51601;51.356;12.458;2023-05-07T14:53:11;14.10;67.50
65034;DHT22;51601;51.356;12.458;2023-05-07T14:57:32;14.10;67.70
65034;DHT22;51601;51.356;12.458;2023-05-07T15:01:54;14.20;68.60
65034;DHT22;51601;51.356;12.458;2023-05-07T15:06:16;14.10;68.10
65034;DHT22;51601;51.356;12.458;2023-05-07T15:10:36;14.10;68.00
65034;DHT22;51601;51.356;12.458;2023-05-07T15:15:00;14.00;68.30
65034;DHT22;51601;51.356;12.458;2023-05-07T15:19:18;14.00;68.00
65034;DHT22;51601;51.356;12.458;2023-05-07T15:23:37;14.00;68.10
65034;DHT22;51601;51.356;12.458;2023-05-07T15:27:57;14.00;68.40
65034;DHT22;51601;51.356;12.458;2023-05-07T15:32:15;13.90;68.50
65034;DHT22;51601;51.356;12.458;2023-05-07T15:36:33;13.90;68.60
65034;DHT22;51601;51.356;12.458;2023-05-07T15:40:52;13.80;68.70
65034;DHT22;51601;51.356;12.458;2023-05-07T15:45:12;13.80;69.10
65034;DHT22;51601;51.356;12.458;2023-05-07T15:49:30;13.80;69.70
65034;DHT22;51601;51.356;12.458;2023-05-07T15:53:51;13.80;70.10
65034;DHT22;51601;51.356;12.458;2023-05-07T15:58:26;13.80;70.10
65034;DHT22;51601;51.356;12.458;2023-05-07T16:02:43;13.70;70.20
65034;DHT22;51601;51.356;12.458;2023-05-07T16:07:04;13.70;70.50
65034;DHT22;51601;51.356;12.458;2023-05-07T16:11:22;13.60;71.10
65034;DHT22;51601;51.356;12.458;2023-05-07T16:15:42;13.50;71.80
65034;DHT22;51601;51.356;12.458;2023-05-07T16:20:03;13.50;71.80
65034;DHT22;51601;51.356;12.458;2023-05-07T16:24:25;13.30;71.80
65034;DHT22;51601;51.356;12.458;2023-05-07T16:28:44;13.20;71.90
65034;DHT22;51601;51.356;12.458;2023-05-07T16:33:19;13.00;72.40
65034;DHT22;51601;51.356;12.458;2023-05-07T16:37:39;12.90;73.10
65034;DHT22;51601;51.356;12.458;2023-05-07T16:42:04;12.90;74.00
65034;DHT22;51601;51.356;12.458;2023-05-07T16:46:25;12.80;74.60
65034;DHT22;51601;51.356;12.458;2023-05-07T16:50:46;12.70;75.00
65034;DHT22;51601;51.356;12.458;2023-05-07T16:55:07;12.60;75.10
65034;DHT22;51601;51.356;12.458;2023-05-07T16:59:27;12.50;75.80
65034;DHT22;51601;51.356;12.458;2023-05-07T17:03:51;12.50;76.20
65034;DHT22;51601;51.356;12.458;2023-05-07T17:08:12;12.40;76.00
65034;DHT22;51601;51.356;12.458;2023-05-07T17:12:30;12.40;76.30
65034;DHT22;51601;51.356;12.458;2023-05-07T17:16:54;12.30;76.40
65034;DHT22;51601;51.356;12.458;2023-05-07T17:21:16;12.20;76.50
65034;DHT22;51601;51.356;12.458;2023-05-07T17:25:39;12.20;76.50
65034;DHT22;51601;51.356;12.458;2023-05-07T17:30:05;12.10;76.90
65034;DHT22;51601;51.356;12.458;2023-05-07T17:34:25;12.10;78.00
65034;DHT22;51601;51.356;12.458;2023-05-07T17:38:43;12.00;78.90
65034;DHT22;51601;51.356;12.458;2023-05-07T17:43:04;12.00;80.20
65034;DHT22;51601;51.356;12.458;2023-05-07T17:47:22;11.90;80.60
65034;DHT22;51601;51.356;12.458;2023-05-07T17:51:43;11.70;80.80
65034;DHT22;51601;51.356;12.458;2023-05-07T17:56:11;11.70;81.20
65034;DHT22;51601;51.356;12.458;2023-05-07T18:00:31;11.60;82.10
65034;DHT22;51601;51.356;12.458;2023-05-07T18:04:50;11.60;82.00
65034;DHT22;51601;51.356;12.458;2023-05-07T18:09:08;11.50;82.20
65034;DHT22;51601;51.356;12.458;2023-05-07T18:13:27;11.40;82.50
65034;DHT22;51601;51.356;12.458;2023-05-07T18:17:50;11.30;82.70
65034;DHT22;51601;51.356;12.458;2023-05-07T18:22:11;11.20;83.50
65034;DHT22;51601;51.356;12.458;2023-05-07T18:26:32;11.10;84.50
65034;DHT22;51601;51.356;12.458;2023-05-07T18:30:53;11.00;85.00
65034;DHT22;51601;51.356;12.458;2023-05-07T18:35:13;10.90;85.40
65034;DHT22;51601;51.356;12.458;2023-05-07T18:39:37;10.80;85.70
65034;DHT22;51601;51.356;12.458;2023-05-07T18:44:08;10.70;86.60
65034;DHT22;51601;51.356;12.458;2023-05-07T18:48:27;10.60;87.50
65034;DHT22;51601;51.356;12.458;2023-05-07T18:53:04;10.40;88.70
65034;DHT22;51601;51.356;12.458;2023-05-07T18:57:37;10.30;89.90
65034;DHT22;51601;51.356;12.458;2023-05-07T19:02:07;10.20;90.40
65034;DHT22;51601;51.356;12.458;2023-05-07T19:06:29;10.20;90.90
65034;DHT22;51601;51.356;12.458;2023-05-07T19:10:54;10.10;91.30
65034;DHT22;51601;51.356;12.458;2023-05-07T19:15:14;10.00;91.70
65034;DHT22;51601;51.356;12.458;2023-05-07T19:19:38;9.90;92.00
65034;DHT22;51601;51.356;12.458;2023-05-07T19:24:03;9.90;92.40
65034;DHT22;51601;51.356;12.458;2023-05-07T19:28:25;9.80;92.60
65034;DHT22;51601;51.356;12.458;2023-05-07T19:32:48;9.70;92.90
65034;DHT22;51601;51.356;12.458;2023-05-07T19:37:15;9.60;93.30
65034;DHT22;51601;51.356;12.458;2023-05-07T19:41:39;9.50;93.50
65034;DHT22;51601;51.356;12.458;2023-05-07T19:46:01;9.50;93.90
65034;DHT22;51601;51.356;12.458;2023-05-07T19:50:21;9.40;94.10
65034;DHT22;51601;51.356;12.458;2023-05-07T19:54:39;9.30;94.30
65034;DHT22;51601;51.356;12.458;2023-05-07T19:58:57;9.30;94.50
65034;DHT22;51601;51.356;12.458;2023-05-07T20:03:17;9.20;94.70
65034;DHT22;51601;51.356;12.458;2023-05-07T20:07:37;9.10;94.70
65034;DHT22;51601;51.356;12.458;2023-05-07T20:11:55;9.10;95.10
65034;DHT22;51601;51.356;12.458;2023-05-07T20:16:13;9.10;94.90
65034;DHT22;51601;51.356;12.458;2023-05-07T20:20:32;9.00;95.10
65034;DHT22;51601;51.356;12.458;2023-05-07T20:24:52;9.00;95.10
65034;DHT22;51601;51.356;12.458;2023-05-07T20:29:10;8.90;95.30
65034;DHT22;51601;51.356;12.458;2023-05-07T20:33:29;8.80;95.50
65034;DHT22;51601;51.356;12.458;2023-05-07T20:37:47;8.80;95.70
65034;DHT22;51601;51.356;12.458;2023-05-07T20:42:07;8.70;95.90
65034;DHT22;51601;51.356;12.458;2023-05-07T20:46:25;8.70;96.10
65034;DHT22;51601;51.356;12.458;2023-05-07T20:50:43;8.70;96.40
65034;DHT22;51601;51.356;12.458;2023-05-07T20:55:03;8.60;96.50
65034;DHT22;51601;51.356;12.458;2023-05-07T20:59:23;8.60;96.70
65034;DHT22;51601;51.356;12.458;2023-05-07T21:03:40;8.50;96.90
65034;DHT22;51601;51.356;12.458;2023-05-07T21:07:59;8.50;97.10
65034;DHT22;51601;51.356;12.458;2023-05-07T21:12:18;8.40;97.30
65034;DHT22;51601;51.356;12.458;2023-05-07T21:16:38;8.40;97.50
65034;DHT22;51601;51.356;12.458;2023-05-07T21:20:56;8.40;97.80
65034;DHT22;51601;51.356;12.458;2023-05-07T21:25:14;8.30;97.90
65034;DHT22;51601;51.356;12.458;2023-05-07T21:29:33;8.30;98.10
65034;DHT22;51601;51.356;12.458;2023-05-07T21:33:53;8.30;98.20
65034;DHT22;51601;51.356;12.458;2023-05-07T21:38:14;8.30;98.40
65034;DHT22;51601;51.356;12.458;2023-05-07T21:42:38;8.30;98.60
65034;DHT22;51601;51.356;12.458;2023-05-07T21:46:58;8.20;98.60
65034;DHT22;51601;51.356;12.458;2023-05-07T21:51:18;8.20;98.70
65034;DHT22;51601;51.356;12.458;2023-05-07T21:55:36;8.10;98.80
65034;DHT22;51601;51.356;12.458;2023-05-07T21:59:54;8.10;99.00
65034;DHT22;51601;51.356;12.458;2023-05-07T22:04:13;8.10;99.10
65034;DHT22;51601;51.356;12.458;2023-05-07T22:08:33;8.10;99.40
65034;DHT22;51601;51.356;12.458;2023-05-07T22:12:51;8.00;99.50
65034;DHT22;51601;51.356;12.458;2023-05-07T22:17:09;8.00;99.70
65034;DHT22;51601;51.356;12.458;2023-05-07T22:21:28;7.90;99.80
65034;DHT22;51601;51.356;12.458;2023-05-07T22:25:48;7.90;99.90
65034;DHT22;51601;51.356;12.458;2023-05-07T22:30:07;7.80;99.90
65034;DHT22;51601;51.356;12.458;2023-05-07T22:34:27;7.80;99.90
65034;DHT22;51601;51.356;12.458;2023-05-07T22:38:47;7.80;99.90
65034;DHT22;51601;51.356;12.458;2023-05-07T22:43:07;7.70;99.90
65034;DHT22;51601;51.356;12.458;2023-05-07T22:47:27;7.70;99.90
65034;DHT22;51601;51.356;12.458;2023-05-07T22:51:46;7.70;99.90
65034;DHT22;51601;51.356;12.458;2023-05-07T22:56:06;7.60;99.90
65034;DHT22;51601;51.356;12.458;2023-05-07T23:00:25;7.60;99.90
65034;DHT22;51601;51.356;12.458;2023-05-07T23:04:43;7.60;99.90
65034;DHT22;51601;51.356;12.458;2023-05-07T23:09:01;7.50;99.90
65034;DHT22;51601;51.356;12.458;2023-05-07T23:13:20;7.50;99.90
65034;DHT22;51601;51.356;12.458;2023-05-07T23:17:40;7.50;99.90
65034;DHT22;51601;51.356;12.458;2023-05-07T23:21:58;7.40;99.90
65034;DHT22;51601;51.356;12.458;2023-05-07T23:26:16;7.40;99.90
65034;DHT22;51601;51.356;12.458;2023-05-07T23:30:36;7.40;99.90
65034;DHT22;51601;51.356;12.458;2023-05-07T23:34:56;7.40;99.90
65034;DHT22;51601;51.356;12.458;2023-05-07T23:39:13;7.30;99.90
65034;DHT22;51601;51.356;12.458;2023-05-07T23:43:32;7.30;99.90
65034;DHT22;51601;51.356;12.458;2023-05-07T23:47:51;7.20;99.90
65034;DHT22;51601;51.356;12.458;2023-05-07T23:52:11;7.20;99.90
65034;DHT22;51601;51.356;12.458;2023-05-07T23:56:29;7.20;99.90
